createdAt,value
2022-11-28T00:04:17.895Z,2.56
2022-11-28T00:09:39.742Z,2.45
2022-11-28T00:15:01.607Z,2.57
2022-11-28T00:20:23.802Z,2.56
2022-11-28T00:25:45.729Z,2.55
2022-11-28T00:31:13.061Z,2.63
2022-11-28T00:36:35.323Z,2.59
2022-11-28T00:41:57.103Z,2.71
2022-11-28T00:47:18.905Z,2.70
2022-11-28T00:52:40.797Z,2.74
2022-11-28T00:58:02.627Z,2.90
2022-11-28T01:03:24.470Z,2.71
2022-11-28T01:08:46.284Z,2.85
2022-11-28T01:14:09.461Z,2.99
2022-11-28T01:19:31.340Z,2.94
2022-11-28T01:24:53.359Z,2.96
2022-11-28T01:30:15.240Z,2.71
2022-11-28T01:35:37.053Z,2.62
2022-11-28T01:40:58.891Z,2.51
2022-11-28T01:46:20.760Z,2.55
2022-11-28T01:51:47.901Z,2.58
2022-11-28T01:57:15.322Z,2.39
2022-11-28T02:02:42.673Z,2.45
2022-11-28T02:08:05.368Z,2.41
2022-11-28T02:13:30.154Z,2.40
2022-11-28T02:19:10.737Z,2.62
2022-11-28T02:24:56.950Z,2.70
2022-11-28T02:30:46.177Z,2.59
2022-11-28T02:36:11.913Z,2.41
2022-11-28T02:41:54.108Z,2.26
2022-11-28T02:47:23.159Z,2.37
2022-11-28T02:52:50.133Z,2.44
2022-11-28T02:58:12.967Z,2.37
2022-11-28T03:04:12.936Z,2.32
2022-11-28T03:10:05.397Z,2.23
2022-11-28T03:15:59.743Z,2.27
2022-11-28T03:21:27.379Z,2.39
2022-11-28T03:27:14.674Z,2.43
2022-11-28T03:32:39.592Z,2.51
2022-11-28T03:38:09.077Z,2.37
2022-11-28T03:43:41.315Z,2.15
2022-11-28T03:49:06.741Z,2.38
2022-11-28T03:54:35.865Z,2.28
2022-11-28T04:00:00.973Z,2.52
2022-11-28T04:05:29.687Z,2.35
2022-11-28T04:11:00.540Z,2.37
2022-11-28T04:16:34.770Z,2.38
2022-11-28T04:22:19.509Z,2.46
2022-11-28T04:27:50.448Z,2.43
2022-11-28T04:33:15.395Z,2.47
2022-11-28T04:38:39.840Z,2.45
2022-11-28T04:44:15.984Z,2.16
2022-11-28T04:49:38.339Z,2.00
2022-11-28T04:55:22.523Z,2.08
2022-11-28T05:00:47.245Z,2.05
2022-11-28T05:06:09.280Z,1.95
2022-11-28T05:11:31.599Z,2.15
2022-11-28T05:16:53.501Z,2.13
2022-11-28T05:22:15.916Z,2.10
2022-11-28T05:27:37.789Z,2.10
2022-11-28T05:32:59.639Z,2.07
2022-11-28T05:38:21.444Z,1.79
2022-11-28T05:43:43.233Z,1.77
2022-11-28T05:49:05.094Z,1.80
2022-11-28T05:54:27.015Z,1.87
2022-11-28T05:59:48.801Z,1.87
2022-11-28T06:05:27.646Z,1.85
2022-11-28T06:10:59.151Z,1.91
2022-11-28T06:16:26.752Z,1.76
2022-11-28T06:21:50.412Z,1.70
2022-11-28T06:27:12.328Z,1.79
2022-11-28T06:32:34.297Z,1.98
2022-11-28T06:37:56.126Z,1.79
2022-11-28T06:43:17.920Z,1.66
2022-11-28T06:48:39.668Z,1.54
2022-11-28T06:54:01.559Z,1.71
2022-11-28T06:59:23.371Z,1.84
2022-11-28T07:04:45.311Z,1.80
2022-11-28T07:10:07.800Z,1.58
2022-11-28T07:15:29.569Z,1.72
2022-11-28T07:20:51.379Z,1.68
2022-11-28T07:26:14.978Z,1.57
2022-11-28T07:31:37.096Z,1.50
2022-11-28T07:36:59.017Z,1.81
2022-11-28T07:42:20.879Z,1.77
2022-11-28T07:47:42.679Z,1.84
2022-11-28T07:53:07.336Z,1.63
2022-11-28T07:58:29.704Z,1.88
2022-11-28T08:03:53.019Z,2.14
2022-11-28T08:09:14.883Z,2.41
2022-11-28T08:14:36.702Z,2.71
2022-11-28T08:19:58.525Z,2.73
2022-11-28T08:25:20.377Z,2.45
2022-11-28T08:30:42.210Z,2.74
2022-11-28T08:36:08.590Z,2.75
2022-11-28T08:41:30.463Z,2.51
2022-11-28T08:46:53.172Z,2.62
2022-11-28T08:52:15.062Z,2.56
2022-11-28T08:57:36.926Z,2.77
2022-11-28T09:02:58.834Z,2.94
2022-11-28T09:08:21.170Z,3.34
2022-11-28T09:13:43.308Z,3.70
2022-11-28T09:19:05.407Z,3.55
2022-11-28T09:24:27.197Z,3.78
2022-11-28T09:29:48.992Z,3.70
2022-11-28T09:35:10.747Z,3.56
2022-11-28T09:40:42.013Z,3.67
2022-11-28T09:46:13.127Z,3.82
2022-11-28T09:51:43.492Z,3.87
2022-11-28T09:57:14.196Z,3.86
2022-11-28T10:02:44.837Z,4.13
2022-11-28T10:08:06.616Z,3.64
2022-11-28T10:14:07.362Z,3.56
2022-11-28T10:19:53.888Z,3.53
2022-11-28T10:25:22.270Z,3.42
2022-11-28T10:30:48.896Z,3.54
2022-11-28T10:36:27.348Z,3.64
2022-11-28T10:42:20.113Z,3.59
2022-11-28T10:48:29.625Z,3.78
2022-11-28T10:54:14.566Z,3.62
2022-11-28T11:00:02.457Z,3.55
2022-11-28T11:05:27.337Z,3.56
2022-11-28T11:10:51.872Z,3.63
2022-11-28T11:16:13.730Z,3.40
2022-11-28T11:21:35.588Z,3.57
2022-11-28T11:27:14.910Z,3.51
2022-11-28T11:32:36.728Z,3.37
2022-11-28T11:38:29.537Z,3.50
2022-11-28T11:43:54.189Z,3.58
2022-11-28T11:49:40.899Z,3.14
2022-11-28T11:55:15.406Z,2.96
2022-11-28T12:00:40.792Z,3.14
2022-11-28T12:06:14.589Z,3.18
2022-11-28T12:11:46.904Z,2.88
2022-11-28T12:17:48.278Z,3.19
2022-11-28T12:23:20.720Z,3.22
2022-11-28T12:29:11.262Z,3.11
2022-11-28T12:34:44.415Z,3.11
2022-11-28T12:40:51.437Z,3.34
2022-11-28T12:46:22.814Z,3.09
2022-11-28T12:51:59.962Z,3.24
2022-11-28T12:57:53.813Z,3.17
2022-11-28T13:03:37.069Z,3.36
2022-11-28T13:09:01.642Z,3.02
2022-11-28T13:14:38.227Z,3.00
2022-11-28T13:20:12.629Z,3.09
2022-11-28T13:25:55.474Z,2.45
2022-11-28T13:31:28.570Z,3.08
2022-11-28T13:49:12.553Z,2.95
2022-11-28T13:54:18.079Z,3.08
2022-11-28T13:59:40.061Z,3.03
2022-11-28T14:05:03.336Z,2.94
2022-11-28T14:10:40.253Z,2.61
2022-11-28T14:16:21.852Z,2.62
2022-11-28T14:22:17.774Z,2.86
2022-11-28T14:27:46.133Z,2.76
2022-11-28T14:33:19.821Z,2.75
2022-11-28T14:38:43.118Z,2.65
2022-11-28T14:44:44.004Z,2.59
2022-11-28T14:50:05.945Z,2.54
2022-11-28T14:55:27.839Z,2.66
2022-11-28T15:00:55.747Z,2.44
2022-11-28T15:06:32.855Z,2.41
2022-11-28T15:12:10.793Z,2.62
2022-11-28T15:17:33.644Z,2.61
2022-11-28T15:22:55.421Z,2.40
2022-11-28T15:28:18.949Z,2.29
2022-11-28T15:33:40.783Z,2.42
2022-11-28T15:39:02.699Z,2.39
2022-11-28T15:44:24.719Z,2.26
2022-11-28T15:49:57.709Z,2.33
2022-11-28T15:55:19.496Z,2.32
2022-11-28T16:00:44.473Z,2.22
2022-11-28T16:06:06.827Z,2.22
2022-11-28T16:11:30.053Z,2.27
2022-11-28T16:16:51.841Z,2.13
2022-11-28T16:22:21.993Z,2.25
2022-11-28T16:27:43.825Z,2.05
2022-11-28T16:33:35.725Z,2.09
2022-11-28T16:39:12.020Z,2.36
2022-11-28T16:44:33.862Z,1.92
2022-11-28T16:50:16.033Z,2.06
2022-11-28T16:55:39.117Z,2.06
2022-11-28T17:01:02.484Z,2.38
2022-11-28T17:06:25.995Z,2.30
2022-11-28T17:12:07.332Z,2.05
2022-11-28T17:17:30.699Z,2.03
2022-11-28T17:22:52.520Z,1.89
2022-11-28T17:28:20.275Z,1.90
2022-11-28T17:33:45.010Z,2.06
2022-11-28T17:39:06.935Z,1.81
2022-11-28T17:44:33.232Z,1.94
2022-11-28T17:49:55.260Z,1.69
2022-11-28T17:55:17.186Z,1.87
2022-11-28T18:00:40.162Z,1.60
2022-11-28T18:06:02.122Z,1.56
2022-11-28T18:11:24.246Z,1.83
2022-11-28T18:16:46.134Z,1.56
2022-11-28T18:22:08.048Z,1.68
2022-11-28T18:27:29.955Z,1.55
2022-11-28T18:32:51.744Z,1.49
2022-11-28T18:38:13.593Z,1.21
2022-11-28T18:43:36.397Z,1.43
2022-11-28T18:48:58.508Z,1.30
2022-11-28T18:54:21.526Z,1.33
2022-11-28T18:59:51.154Z,1.13
2022-11-28T19:05:14.947Z,1.02
2022-11-28T19:10:40.043Z,1.27
2022-11-28T19:16:10.373Z,1.01
2022-11-28T19:21:34.040Z,1.11
2022-11-28T19:26:55.834Z,1.28
2022-11-28T19:32:17.677Z,1.22
2022-11-28T19:37:39.518Z,1.04
2022-11-28T19:43:01.343Z,0.95
2022-11-28T19:48:23.482Z,1.01
2022-11-28T19:53:45.401Z,1.00
2022-11-28T19:59:07.251Z,1.17
2022-11-28T20:04:29.184Z,0.90
2022-11-28T20:09:51.042Z,0.96
2022-11-28T20:15:18.068Z,1.14
2022-11-28T20:20:40.211Z,1.25
2022-11-28T20:26:06.105Z,1.28
2022-11-28T20:31:34.410Z,1.15
2022-11-28T20:36:56.537Z,1.21
2022-11-28T20:42:18.397Z,1.10
2022-11-28T20:47:40.178Z,0.98
2022-11-28T20:53:01.940Z,0.97
2022-11-28T20:58:23.713Z,1.13
2022-11-28T21:03:45.887Z,1.01
2022-11-28T21:09:08.210Z,0.73
2022-11-28T21:14:30.273Z,1.11
2022-11-28T21:19:52.073Z,1.02
2022-11-28T21:25:13.914Z,1.05
2022-11-28T21:30:40.451Z,1.21
2022-11-28T21:36:02.780Z,0.97
2022-11-28T21:41:28.817Z,0.86
2022-11-28T21:46:50.633Z,1.06
2022-11-28T21:52:12.534Z,1.31
2022-11-28T21:57:34.522Z,1.31
2022-11-28T22:03:02.528Z,1.20
2022-11-28T22:08:26.065Z,1.18
2022-11-28T22:13:48.517Z,0.94
2022-11-28T22:19:10.365Z,1.03
2022-11-28T22:24:32.254Z,0.94
2022-11-28T22:29:54.337Z,1.01
2022-11-28T22:35:16.285Z,0.86
2022-11-28T22:40:38.399Z,0.66
2022-11-28T22:46:00.303Z,0.77
2022-11-28T22:51:25.094Z,0.83
2022-11-28T22:56:46.956Z,0.80
2022-11-28T23:02:08.839Z,0.71
2022-11-28T23:07:30.900Z,0.83
2022-11-28T23:12:52.934Z,0.89
2022-11-28T23:18:14.742Z,0.85
2022-11-28T23:23:36.858Z,0.73
2022-11-28T23:29:02.969Z,0.96
2022-11-28T23:34:24.765Z,1.00
2022-11-28T23:39:46.625Z,0.86
2022-11-28T23:45:09.311Z,0.79
2022-11-28T23:50:31.167Z,0.94
2022-11-28T23:55:53.108Z,1.00
